createdAt,value
2019-03-18T00:01:15.838Z,3.22
2019-03-18T00:04:22.133Z,3.26
2019-03-18T00:07:28.656Z,3.21
2019-03-18T00:10:35.273Z,3.28
2019-03-18T00:13:41.569Z,3.28
2019-03-18T00:16:47.920Z,3.29
2019-03-18T00:19:55.886Z,3.25
2019-03-18T00:23:02.447Z,3.26
2019-03-18T00:26:12.058Z,3.23
2019-03-18T00:29:18.617Z,3.26
2019-03-18T00:32:25.784Z,3.27
2019-03-18T00:35:32.208Z,3.24
2019-03-18T00:38:39.152Z,3.25
2019-03-18T00:41:45.625Z,3.24
2019-03-18T00:44:52.195Z,3.21
2019-03-18T00:48:00.228Z,3.20
2019-03-18T00:51:09.211Z,3.20
2019-03-18T00:54:15.735Z,3.25
2019-03-18T00:57:23.489Z,3.27
2019-03-18T01:00:30.041Z,3.31
2019-03-18T01:03:36.469Z,3.30
2019-03-18T01:06:43.884Z,3.28
2019-03-18T01:09:50.782Z,3.25
2019-03-18T01:12:58.835Z,3.33
2019-03-18T01:16:05.594Z,3.21
2019-03-18T01:19:12.080Z,3.23
2019-03-18T01:22:18.532Z,3.25
2019-03-18T01:25:26.129Z,3.24
2019-03-18T01:28:34.377Z,3.15
2019-03-18T01:31:41.056Z,3.15
2019-03-18T01:34:49.438Z,3.18
2019-03-18T01:37:57.315Z,3.19
2019-03-18T01:41:03.726Z,3.12
2019-03-18T01:44:10.380Z,3.11
2019-03-18T01:47:18.233Z,3.07
2019-03-18T01:50:24.709Z,3.14
2019-03-18T01:53:31.539Z,3.11
2019-03-18T01:56:37.933Z,3.08
2019-03-18T01:59:46.128Z,2.99
2019-03-18T02:02:52.515Z,3.04
2019-03-18T02:05:59.584Z,3.05
2019-03-18T02:09:06.882Z,3.06
2019-03-18T02:12:15.174Z,3.13
2019-03-18T02:15:21.601Z,3.12
2019-03-18T02:18:27.967Z,3.09
2019-03-18T02:21:34.263Z,3.18
2019-03-18T02:24:40.761Z,3.19
2019-03-18T02:27:47.224Z,3.19
2019-03-18T02:30:54.454Z,3.21
2019-03-18T02:34:02.575Z,3.16
2019-03-18T02:37:09.955Z,3.27
2019-03-18T02:40:17.857Z,3.32
2019-03-18T02:43:24.278Z,3.34
2019-03-18T02:46:30.618Z,3.32
2019-03-18T02:49:37.438Z,3.41
2019-03-18T02:52:43.741Z,3.40
2019-03-18T02:55:50.192Z,3.44
2019-03-18T02:58:58.157Z,3.44
2019-03-18T03:02:04.643Z,3.48
2019-03-18T03:05:11.484Z,3.39
2019-03-18T03:08:18.412Z,3.44
2019-03-18T03:11:24.669Z,3.44
2019-03-18T03:14:32.153Z,3.41
2019-03-18T03:17:38.533Z,3.52
2019-03-18T03:20:45.659Z,3.48
2019-03-18T03:23:52.041Z,3.54
2019-03-18T03:26:58.786Z,3.50
2019-03-18T03:30:05.734Z,3.49
2019-03-18T03:33:12.105Z,3.50
2019-03-18T03:36:21.731Z,3.52
2019-03-18T03:39:29.663Z,3.45
2019-03-18T03:42:36.001Z,3.55
2019-03-18T03:45:43.102Z,3.53
2019-03-18T03:48:49.601Z,3.53
2019-03-18T03:51:56.010Z,3.53
2019-03-18T03:55:02.399Z,3.54
2019-03-18T03:58:08.789Z,3.50
2019-03-18T04:01:15.107Z,3.51
2019-03-18T04:04:23.947Z,3.54
2019-03-18T04:07:30.484Z,3.55
2019-03-18T04:10:37.491Z,3.20
2019-03-18T04:13:43.748Z,3.55
2019-03-18T04:17:01.612Z,3.55
2019-03-18T04:20:04.109Z,3.53
2019-03-18T04:23:10.671Z,3.57
2019-03-18T04:26:18.404Z,3.60
2019-03-18T04:29:24.882Z,3.58
2019-03-18T04:32:31.364Z,3.61
2019-03-18T04:35:37.774Z,3.61
2019-03-18T04:38:44.353Z,3.60
2019-03-18T04:41:51.164Z,3.62
2019-03-18T04:44:57.554Z,3.58
2019-03-18T04:48:04.039Z,3.53
2019-03-18T04:51:10.394Z,3.53
2019-03-18T04:54:17.780Z,3.64
2019-03-18T04:57:24.204Z,3.64
2019-03-18T05:00:30.768Z,3.69
2019-03-18T05:03:37.163Z,3.57
2019-03-18T05:06:45.005Z,3.64
2019-03-18T05:09:51.429Z,3.58
2019-03-18T05:12:57.831Z,3.53
2019-03-18T05:16:04.187Z,3.47
2019-03-18T05:19:11.973Z,3.50
2019-03-18T05:22:20.194Z,3.49
2019-03-18T05:25:26.569Z,3.42
2019-03-18T05:28:32.895Z,3.50
2019-03-18T05:31:39.464Z,3.42
2019-03-18T05:34:46.069Z,3.45
2019-03-18T05:37:55.734Z,3.42
2019-03-18T05:41:02.583Z,3.39
2019-03-18T05:44:09.181Z,3.34
2019-03-18T05:47:15.729Z,3.43
2019-03-18T05:50:24.890Z,3.42
2019-03-18T05:53:31.151Z,3.39
2019-03-18T05:56:38.043Z,3.31
2019-03-18T05:59:44.412Z,3.38
2019-03-18T06:02:50.706Z,3.33
2019-03-18T06:05:57.040Z,3.35
2019-03-18T06:09:04.983Z,3.38
2019-03-18T06:12:13.275Z,3.43
2019-03-18T06:15:19.602Z,3.44
2019-03-18T06:18:26.012Z,3.47
2019-03-18T06:21:32.408Z,3.61
2019-03-18T06:24:39.516Z,3.64
2019-03-18T06:27:46.305Z,3.72
2019-03-18T06:30:52.655Z,3.77
2019-03-18T06:33:59.131Z,3.74
2019-03-18T06:37:05.628Z,3.84
2019-03-18T06:40:12.426Z,3.92
2019-03-18T06:43:19.330Z,4.06
2019-03-18T06:46:26.262Z,4.00
2019-03-18T06:49:32.635Z,4.04
2019-03-18T06:52:38.990Z,4.07
2019-03-18T06:55:45.450Z,4.07
2019-03-18T06:58:51.809Z,4.01
2019-03-18T07:01:58.235Z,4.07
2019-03-18T07:05:05.145Z,4.09
2019-03-18T07:08:11.594Z,4.09
2019-03-18T07:11:17.961Z,4.17
2019-03-18T07:14:25.553Z,4.23
2019-03-18T07:17:31.958Z,4.05
2019-03-18T07:20:38.298Z,4.04
2019-03-18T07:23:45.224Z,4.08
2019-03-18T07:26:51.809Z,4.05
2019-03-18T07:29:58.254Z,4.03
2019-03-18T07:33:04.602Z,4.03
2019-03-18T07:36:10.999Z,4.10
2019-03-18T07:39:17.375Z,4.07
2019-03-18T07:42:24.320Z,4.16
2019-03-18T07:45:31.423Z,3.94
2019-03-18T07:48:38.121Z,4.02
2019-03-18T07:51:44.793Z,4.11
2019-03-18T07:54:51.601Z,4.17
2019-03-18T07:57:57.883Z,4.08
2019-03-18T08:01:04.409Z,4.12
2019-03-18T08:04:10.772Z,4.15
2019-03-18T08:07:17.266Z,4.11
2019-03-18T08:10:23.614Z,4.10
2019-03-18T08:13:29.970Z,4.08
2019-03-18T08:16:36.405Z,4.21
2019-03-18T08:19:42.880Z,4.17
2019-03-18T08:22:49.253Z,4.21
2019-03-18T08:25:55.696Z,4.18
2019-03-18T08:29:02.042Z,4.12
2019-03-18T08:32:11.778Z,4.12
2019-03-18T08:35:20.262Z,4.14
2019-03-18T08:38:26.576Z,4.23
2019-03-18T08:41:32.966Z,4.18
2019-03-18T08:44:40.600Z,4.11
2019-03-18T08:47:47.346Z,4.11
2019-03-18T08:50:53.964Z,4.04
2019-03-18T08:54:00.310Z,4.07
2019-03-18T08:57:06.704Z,3.99
2019-03-18T09:00:13.126Z,3.91
2019-03-18T09:03:19.418Z,3.83
2019-03-18T09:06:25.795Z,3.80
2019-03-18T09:09:32.072Z,3.76
2019-03-18T09:12:38.388Z,3.72
2019-03-18T09:15:45.207Z,3.72
2019-03-18T09:18:51.578Z,3.68
2019-03-18T09:21:58.044Z,3.72
2019-03-18T09:25:04.860Z,3.78
2019-03-18T09:28:11.275Z,3.70
2019-03-18T09:31:18.018Z,3.72
2019-03-18T09:34:26.326Z,3.90
2019-03-18T09:37:32.589Z,3.97
2019-03-18T09:40:38.945Z,3.75
2019-03-18T09:43:45.582Z,3.95
2019-03-18T09:46:51.989Z,3.94
2019-03-18T09:49:58.507Z,4.05
2019-03-18T09:53:05.100Z,4.01
2019-03-18T09:56:11.574Z,4.15
2019-03-18T09:59:18.015Z,4.32
2019-03-18T10:02:24.564Z,4.36
2019-03-18T10:05:30.921Z,4.49
2019-03-18T10:08:37.505Z,4.43
2019-03-18T10:11:44.053Z,4.52
2019-03-18T10:14:50.477Z,4.54
2019-03-18T10:17:56.753Z,4.56
2019-03-18T10:21:03.149Z,4.55
2019-03-18T10:24:09.591Z,4.54
2019-03-18T10:27:15.925Z,4.54
2019-03-18T10:30:22.504Z,4.68
2019-03-18T10:33:28.938Z,4.68
2019-03-18T10:36:35.277Z,4.80
2019-03-18T10:39:41.595Z,4.78
2019-03-18T10:42:48.153Z,4.74
2019-03-18T10:45:54.624Z,4.91
2019-03-18T10:49:01.154Z,5.05
2019-03-18T10:52:07.957Z,4.82
2019-03-18T10:55:14.722Z,4.78
2019-03-18T10:58:21.119Z,4.81
2019-03-18T11:01:28.379Z,4.94
2019-03-18T11:04:34.727Z,5.04
2019-03-18T11:07:41.272Z,4.91
2019-03-18T11:10:47.764Z,4.74
2019-03-18T11:13:54.209Z,4.87
2019-03-18T11:17:00.464Z,4.95
2019-03-18T11:20:07.386Z,4.79
2019-03-18T11:23:13.738Z,4.85
2019-03-18T11:26:20.295Z,4.93
2019-03-18T11:29:26.713Z,4.96
2019-03-18T11:32:34.138Z,4.87
2019-03-18T11:35:40.561Z,4.75
2019-03-18T11:38:46.970Z,4.84
2019-03-18T11:41:53.453Z,4.79
2019-03-18T11:44:59.935Z,4.88
2019-03-18T11:48:06.469Z,4.88
2019-03-18T11:51:12.841Z,4.96
2019-03-18T11:54:19.584Z,4.87
2019-03-18T11:57:26.335Z,5.04
2019-03-18T12:00:32.740Z,4.88
2019-03-18T12:03:39.061Z,4.84
2019-03-18T12:06:45.398Z,4.84
2019-03-18T12:09:51.771Z,4.99
2019-03-18T12:12:58.125Z,4.98
2019-03-18T12:16:04.485Z,4.95
2019-03-18T12:19:10.724Z,5.01
2019-03-18T12:22:17.238Z,5.09
2019-03-18T12:25:23.631Z,5.16
2019-03-18T12:28:29.926Z,5.31
2019-03-18T12:31:36.361Z,5.21
2019-03-18T12:34:42.749Z,5.33
2019-03-18T12:37:49.162Z,5.49
2019-03-18T12:40:55.523Z,5.61
2019-03-18T12:44:01.791Z,5.67
2019-03-18T12:47:08.238Z,5.65
2019-03-18T12:50:15.615Z,5.70
2019-03-18T12:53:21.881Z,5.64
2019-03-18T12:56:28.538Z,5.42
2019-03-18T12:59:35.391Z,5.34
2019-03-18T13:02:41.707Z,5.25
2019-03-18T13:05:48.152Z,5.17
2019-03-18T13:08:54.496Z,5.04
2019-03-18T13:12:00.784Z,4.93
2019-03-18T13:15:08.304Z,4.99
2019-03-18T13:18:15.859Z,5.16
2019-03-18T13:21:22.120Z,4.97
2019-03-18T13:24:28.444Z,5.21
2019-03-18T13:27:34.835Z,5.08
2019-03-18T13:30:41.202Z,4.90
2019-03-18T13:33:47.468Z,4.57
2019-03-18T13:36:53.997Z,4.49
2019-03-18T13:40:00.438Z,4.68
2019-03-18T13:43:06.787Z,4.19
2019-03-18T13:46:13.110Z,4.02
2019-03-18T13:49:19.568Z,4.19
2019-03-18T13:52:25.851Z,4.41
2019-03-18T13:55:32.351Z,4.39
2019-03-18T13:58:40.448Z,4.41
2019-03-18T14:01:47.501Z,4.58
2019-03-18T14:04:53.940Z,4.35
2019-03-18T14:08:01.377Z,4.24
2019-03-18T14:11:07.952Z,4.09
2019-03-18T14:14:15.836Z,4.04
2019-03-18T14:17:23.827Z,3.91
2019-03-18T14:20:30.183Z,3.82
2019-03-18T14:23:36.541Z,3.74
2019-03-18T14:26:43.036Z,3.89
2019-03-18T14:29:49.401Z,4.05
2019-03-18T14:32:55.929Z,4.10
2019-03-18T14:36:02.154Z,4.09
2019-03-18T14:39:08.508Z,3.90
2019-03-18T14:42:15.059Z,4.00
2019-03-18T14:45:21.475Z,3.91
2019-03-18T14:48:27.819Z,4.01
2019-03-18T14:51:45.287Z,4.12
2019-03-18T14:54:42.267Z,4.28
2019-03-18T14:57:48.732Z,4.10
2019-03-18T15:00:55.321Z,4.27
2019-03-18T15:04:01.867Z,4.22
2019-03-18T15:07:08.557Z,4.09
2019-03-18T15:10:15.127Z,3.90
2019-03-18T15:13:30.300Z,4.02
2019-03-18T15:16:29.594Z,4.00
2019-03-18T15:19:36.071Z,4.11
2019-03-18T15:22:42.477Z,4.06
2019-03-18T15:25:48.827Z,3.87
2019-03-18T15:28:58.405Z,3.86
2019-03-18T15:32:05.925Z,3.93
2019-03-18T15:35:13.952Z,4.05
2019-03-18T15:38:20.249Z,4.15
2019-03-18T15:41:26.608Z,4.15
2019-03-18T15:44:33.038Z,3.95
2019-03-18T15:47:39.638Z,4.01
2019-03-18T15:50:46.069Z,4.08
2019-03-18T15:53:52.477Z,4.01
2019-03-18T15:57:00.254Z,3.85
2019-03-18T16:00:08.455Z,3.80
2019-03-18T16:03:15.874Z,3.77
2019-03-18T16:06:22.645Z,3.48
2019-03-18T16:09:29.109Z,3.41
2019-03-18T16:12:35.652Z,3.42
2019-03-18T16:15:41.937Z,3.40
2019-03-18T16:18:48.365Z,3.38
2019-03-18T16:21:54.706Z,3.27
2019-03-18T16:25:01.088Z,3.09
2019-03-18T16:28:07.519Z,2.95
2019-03-18T16:31:13.922Z,3.04
2019-03-18T16:34:20.289Z,2.80
2019-03-18T16:37:26.846Z,2.66
2019-03-18T16:40:33.204Z,2.62
2019-03-18T16:43:39.688Z,2.74
2019-03-18T16:46:46.096Z,2.72
2019-03-18T16:49:52.527Z,2.78
2019-03-18T16:52:58.991Z,2.58
2019-03-18T16:56:05.521Z,2.59
2019-03-18T16:59:18.758Z,2.56
2019-03-18T17:02:26.796Z,2.33
2019-03-18T17:05:33.457Z,2.32
2019-03-18T17:08:39.948Z,2.26
2019-03-18T17:11:46.497Z,2.17
2019-03-18T17:14:52.869Z,2.18
2019-03-18T17:17:59.236Z,2.20
2019-03-18T17:21:07.361Z,2.12
2019-03-18T17:24:14.802Z,2.26
2019-03-18T17:27:21.433Z,2.14
2019-03-18T17:30:36.978Z,2.14
2019-03-18T17:33:48.927Z,1.96
2019-03-18T17:37:11.690Z,2.14
2019-03-18T17:40:17.605Z,1.86
2019-03-18T17:43:24.224Z,1.79
2019-03-18T17:46:30.636Z,1.73
2019-03-18T17:49:37.346Z,1.88
2019-03-18T17:52:43.799Z,1.76
2019-03-18T17:55:50.373Z,1.85
2019-03-18T17:58:56.741Z,1.74
2019-03-18T18:02:03.107Z,1.66
2019-03-18T18:05:09.622Z,1.64
2019-03-18T18:08:18.308Z,1.37
2019-03-18T18:11:24.391Z,1.51
2019-03-18T18:14:30.846Z,1.35
2019-03-18T18:17:37.623Z,1.51
2019-03-18T18:20:44.192Z,1.53
2019-03-18T18:23:52.229Z,1.54
2019-03-18T18:26:58.693Z,1.54
2019-03-18T18:30:05.810Z,1.38
2019-03-18T18:33:12.414Z,1.55
2019-03-18T18:36:19.018Z,1.53
2019-03-18T18:39:27.036Z,1.64
2019-03-18T18:42:33.437Z,1.53
2019-03-18T18:45:42.523Z,1.57
2019-03-18T18:48:48.909Z,1.37
2019-03-18T18:51:57.937Z,1.56
2019-03-18T18:55:04.524Z,1.55
2019-03-18T18:58:10.835Z,1.36
2019-03-18T19:01:19.349Z,1.13
2019-03-18T19:04:25.721Z,1.07
2019-03-18T19:07:32.082Z,1.25
2019-03-18T19:10:38.569Z,1.24
2019-03-18T19:13:45.278Z,1.23
2019-03-18T19:16:51.644Z,1.32
2019-03-18T19:19:58.114Z,1.45
2019-03-18T19:23:04.458Z,1.44
2019-03-18T19:26:10.819Z,1.31
2019-03-18T19:29:17.289Z,1.47
2019-03-18T19:32:24.020Z,1.49
2019-03-18T19:35:30.480Z,1.20
2019-03-18T19:38:37.079Z,1.31
2019-03-18T19:41:43.532Z,1.32
2019-03-18T19:44:50.006Z,1.39
2019-03-18T19:47:57.266Z,1.42
2019-03-18T19:51:03.774Z,1.22
2019-03-18T19:54:12.729Z,1.11
2019-03-18T19:57:18.243Z,1.14
2019-03-18T20:00:24.618Z,1.22
2019-03-18T20:03:31.275Z,1.28
2019-03-18T20:06:37.710Z,1.31
2019-03-18T20:09:46.331Z,1.19
2019-03-18T20:12:59.342Z,1.09
2019-03-18T20:16:08.119Z,1.12
2019-03-18T20:19:16.363Z,1.18
2019-03-18T20:22:22.995Z,1.22
2019-03-18T20:25:29.418Z,1.30
2019-03-18T20:28:35.881Z,1.28
2019-03-18T20:31:43.270Z,1.28
2019-03-18T20:34:49.634Z,1.26
2019-03-18T20:37:56.023Z,1.21
2019-03-18T20:41:02.575Z,1.20
2019-03-18T20:44:08.888Z,1.03
2019-03-18T20:47:15.608Z,1.11
2019-03-18T20:50:25.488Z,1.20
2019-03-18T20:53:31.879Z,1.25
2019-03-18T20:56:38.261Z,1.15
2019-03-18T20:59:44.693Z,0.98
2019-03-18T21:02:51.046Z,0.75
2019-03-18T21:05:57.613Z,1.21
2019-03-18T21:09:04.845Z,1.25
2019-03-18T21:12:11.372Z,1.01
2019-03-18T21:15:19.956Z,1.01
2019-03-18T21:18:26.642Z,1.09
2019-03-18T21:21:33.066Z,0.79
2019-03-18T21:24:39.745Z,1.28
2019-03-18T21:27:46.083Z,1.24
2019-03-18T21:30:52.451Z,1.28
2019-03-18T21:33:58.910Z,1.21
2019-03-18T21:37:05.306Z,1.20
2019-03-18T21:40:12.325Z,1.20
2019-03-18T21:43:18.918Z,1.10
2019-03-18T21:46:25.296Z,1.25
2019-03-18T21:49:31.705Z,1.31
2019-03-18T21:52:38.062Z,1.33
2019-03-18T21:55:44.517Z,1.30
2019-03-18T21:58:50.941Z,1.10
2019-03-18T22:01:57.415Z,1.16
2019-03-18T22:05:03.747Z,1.24
2019-03-18T22:08:10.154Z,1.18
2019-03-18T22:11:16.619Z,1.26
2019-03-18T22:14:22.914Z,1.23
2019-03-18T22:17:30.082Z,0.52
2019-03-18T22:20:36.735Z,1.17
2019-03-18T22:23:43.714Z,0.91
2019-03-18T22:26:50.225Z,1.05
2019-03-18T22:29:56.749Z,1.03
2019-03-18T22:33:03.093Z,1.05
2019-03-18T22:36:09.476Z,1.09
2019-03-18T22:39:15.958Z,1.11
2019-03-18T22:42:22.334Z,1.13
2019-03-18T22:45:28.694Z,1.17
2019-03-18T22:48:35.201Z,1.06
2019-03-18T22:51:41.545Z,1.16
2019-03-18T22:54:55.542Z,1.15
2019-03-18T22:57:56.150Z,1.10
2019-03-18T23:01:08.027Z,1.12
2019-03-18T23:04:14.633Z,1.11
2019-03-18T23:07:21.143Z,1.16
2019-03-18T23:10:27.427Z,0.95
2019-03-18T23:13:33.701Z,0.89
2019-03-18T23:16:40.307Z,1.01
2019-03-18T23:19:47.046Z,0.90
2019-03-18T23:22:53.614Z,0.88
2019-03-18T23:26:00.048Z,1.13
2019-03-18T23:29:06.416Z,1.04
2019-03-18T23:32:12.747Z,0.99
2019-03-18T23:35:19.306Z,0.99
2019-03-18T23:38:25.597Z,0.92
2019-03-18T23:41:32.126Z,0.95
2019-03-18T23:44:39.437Z,1.10
2019-03-18T23:47:45.820Z,0.95
2019-03-18T23:50:52.207Z,1.09
2019-03-18T23:53:58.474Z,1.05
2019-03-18T23:57:04.828Z,1.18
